Time;durP1;ratioP1;P1;durP2;ratioP2;P2;SDS_P1;SDS_P2;PMS_P1;PMS_P2;Temp;Humidity;BMP_temperature;BMP_pressure;BME280_temperature;BME280_humidity;BME280_pressure;Samples;Min_cycle;Max_cycle;Signal;HPM_P1;HPM_P2
2021/04/12 00:00:33;;;;;;;6.90;4.63;;;2.10;99.90;;;;;;3594377;39;20497;-76
2021/04/12 00:03:11;;;;;;;12.17;7.43;;;2.10;99.90;;;;;;3594809;39;20381;-77
2021/04/12 00:06:08;;;;;;;11.07;6.90;;;2.10;99.90;;;;;;3597295;39;20434;-77
2021/04/12 00:08:49;;;;;;;22.67;7.57;;;2.10;99.90;;;;;;3584130;39;20374;-77
2021/04/12 00:11:29;;;;;;;25.57;10.47;;;2.10;99.90;;;;;;3586895;39;20376;-77
2021/04/12 00:14:09;;;;;;;18.67;8.97;;;2.00;99.90;;;;;;3574944;39;20392;-77
2021/04/12 00:16:43;;;;;;;18.97;8.50;;;2.10;99.90;;;;;;3583543;39;20411;-76
2021/04/12 00:19:31;;;;;;;12.43;5.70;;;2.10;99.90;;;;;;3586113;39;20366;-77
2021/04/12 00:22:14;;;;;;;9.90;6.40;;;2.00;99.90;;;;;;3569970;39;20698;-77
2021/04/12 00:24:55;;;;;;;13.63;6.70;;;2.00;99.90;;;;;;3569747;39;20497;-77
2021/04/12 00:27:30;;;;;;;16.73;7.17;;;2.00;99.90;;;;;;3586196;39;20385;-77
2021/04/12 00:30:00;;;;;;;10.63;6.53;;;2.10;99.90;;;;;;3560867;39;20434;-77
2021/04/12 00:32:32;;;;;;;13.17;7.60;;;2.00;99.90;;;;;;3561056;39;20686;-75
2021/04/12 00:35:04;;;;;;;11.80;6.60;;;1.90;99.90;;;;;;3575853;39;20935;-77
2021/04/12 00:37:50;;;;;;;26.90;11.33;;;1.90;99.90;;;;;;3586624;39;20433;-77
2021/04/12 00:40:30;;;;;;;16.83;9.43;;;1.90;99.90;;;;;;3575318;39;20448;-76
2021/04/12 00:42:56;;;;;;;19.13;8.97;;;1.80;99.90;;;;;;3583701;39;20511;-77
2021/04/12 00:45:45;;;;;;;14.40;8.90;;;1.80;99.90;;;;;;3577721;39;20392;-77
2021/04/12 00:48:39;;;;;;;12.80;6.80;;;1.80;99.90;;;;;;3585388;39;20300;-77
2021/04/12 00:51:18;;;;;;;16.53;6.40;;;1.80;99.90;;;;;;3585238;39;20384;-76
2021/04/12 00:53:56;;;;;;;6.93;5.00;;;1.80;99.90;;;;;;3585760;39;20565;-77
2021/04/12 00:56:40;;;;;;;6.80;5.37;;;1.80;99.90;;;;;;3576884;39;20386;-77
2021/04/12 00:59:27;;;;;;;5.30;4.17;;;1.70;99.90;;;;;;3584543;39;20443;-76
2021/04/12 01:02:22;;;;;;;5.33;4.70;;;1.70;99.90;;;;;;3559573;39;20414;-77
2021/04/12 01:05:21;;;;;;;6.60;4.80;;;1.70;99.90;;;;;;3633131;22;20865;-78
2021/04/12 01:08:06;;;;;;;6.80;5.13;;;1.80;99.90;;;;;;3583964;39;20411;-77
2021/04/12 01:10:48;;;;;;;4.63;4.17;;;1.80;99.90;;;;;;3581711;39;20406;-77
2021/04/12 01:13:32;;;;;;;9.67;5.13;;;1.70;99.90;;;;;;3586024;39;20388;-76
2021/04/12 01:16:07;;;;;;;8.23;5.43;;;1.60;99.90;;;;;;3585147;39;20407;-77
2021/04/12 01:18:51;;;;;;;6.30;4.70;;;1.70;99.90;;;;;;3585094;39;20742;-76
2021/04/12 01:21:51;;;;;;;5.93;3.83;;;1.60;99.90;;;;;;3582760;39;20485;-76
2021/04/12 01:24:54;;;;;;;6.83;4.60;;;1.50;99.90;;;;;;3577055;39;20375;-77
2021/04/12 01:27:49;;;;;;;5.07;4.67;;;1.50;99.90;;;;;;3586882;39;20448;-76
2021/04/12 01:30:53;;;;;;;5.00;4.40;;;1.50;99.90;;;;;;3591751;39;20439;-76
2021/04/12 01:33:39;;;;;;;6.43;4.80;;;1.50;99.90;;;;;;3586278;39;20416;-77
2021/04/12 01:36:48;;;;;;;7.93;5.90;;;1.40;99.90;;;;;;3586596;39;20405;-78
2021/04/12 01:39:41;;;;;;;7.17;6.20;;;1.40;99.90;;;;;;3566951;40;20428;-77
2021/04/12 01:42:25;;;;;;;6.43;5.07;;;1.40;99.90;;;;;;3566722;40;20462;-77
2021/04/12 01:45:13;;;;;;;4.90;4.40;;;1.40;99.90;;;;;;3566528;40;20510;-78
2021/04/12 01:48:01;;;;;;;8.27;5.73;;;1.40;99.90;;;;;;3565631;40;20479;-77
2021/04/12 01:50:47;;;;;;;6.70;5.23;;;1.40;99.90;;;;;;3567155;40;20396;-78
2021/04/12 01:53:25;;;;;;;6.30;4.60;;;1.40;99.90;;;;;;3557072;40;20678;-77
2021/04/12 01:56:08;;;;;;;7.17;5.03;;;1.40;99.90;;;;;;3567402;40;20471;-77
2021/04/12 01:59:01;;;;;;;5.43;3.93;;;1.30;99.90;;;;;;3568033;40;20378;-78
2021/04/12 02:01:51;;;;;;;10.57;5.37;;;1.40;99.90;;;;;;3558379;40;20407;-77
2021/04/12 02:04:32;;;;;;;8.63;5.07;;;1.30;99.90;;;;;;3566606;39;20519;-77
2021/04/12 02:07:22;;;;;;;6.77;5.67;;;1.30;99.90;;;;;;3566966;40;20433;-78
2021/04/12 02:09:48;;;;;;;9.40;5.63;;;1.30;99.90;;;;;;3580604;39;20384;-78
2021/04/12 02:12:37;;;;;;;7.27;5.40;;;1.30;99.90;;;;;;3586535;39;20410;-78
2021/04/12 02:15:18;;;;;;;8.43;6.37;;;1.30;99.90;;;;;;3587056;39;20236;-77
2021/04/12 02:18:08;;;;;;;9.30;5.87;;;1.30;99.90;;;;;;3581155;39;20396;-78
2021/04/12 02:20:41;;;;;;;11.07;5.63;;;1.30;99.90;;;;;;3598266;39;20708;-77
2021/04/12 02:23:12;;;;;;;7.53;5.50;;;1.20;99.90;;;;;;3597035;39;20509;-78
2021/04/12 02:26:14;;;;;;;7.60;6.00;;;1.20;99.90;;;;;;3597414;39;20405;-78
2021/04/12 02:29:06;;;;;;;11.83;6.47;;;1.40;99.90;;;;;;3595954;39;20381;-78
2021/04/12 02:31:38;;;;;;;10.20;6.20;;;1.20;99.90;;;;;;3595593;39;20377;-76
2021/04/12 02:34:20;;;;;;;5.70;5.07;;;1.30;99.90;;;;;;3606151;39;20403;-78
2021/04/12 02:37:05;;;;;;;7.70;6.43;;;1.40;99.90;;;;;;3596356;39;20451;-77
2021/04/12 02:40:10;;;;;;;9.87;6.50;;;1.30;99.90;;;;;;3587808;39;20489;-77
2021/04/12 02:42:43;;;;;;;9.03;5.70;;;1.30;99.90;;;;;;3595596;39;20366;-77
2021/04/12 02:45:45;;;;;;;9.53;5.67;;;1.30;99.90;;;;;;3588446;39;20382;-77
2021/04/12 02:48:30;;;;;;;7.17;5.90;;;1.30;99.90;;;;;;3595803;39;20446;-77
2021/04/12 02:51:04;;;;;;;6.90;5.20;;;1.30;99.90;;;;;;3597622;39;20405;-77
2021/04/12 02:53:52;;;;;;;8.20;6.07;;;1.20;99.90;;;;;;3598093;39;20414;-77
2021/04/12 02:56:23;;;;;;;8.97;6.00;;;1.20;99.90;;;;;;3597081;39;20410;-77
2021/04/12 02:59:15;;;;;;;10.67;7.10;;;1.20;99.90;;;;;;3596226;39;20378;-77
2021/04/12 03:02:14;;;;;;;12.13;7.50;;;1.20;99.90;;;;;;3596820;39;20436;-77
2021/04/12 03:05:10;;;;;;;6.77;6.10;;;1.10;99.90;;;;;;3599104;39;20419;-76
2021/04/12 03:07:43;;;;;;;10.73;6.77;;;1.20;99.90;;;;;;3597088;39;20381;-77
2021/04/12 03:10:37;;;;;;;9.03;5.40;;;1.10;99.90;;;;;;3606274;39;21154;-77
2021/04/12 03:13:06;;;;;;;6.53;5.77;;;1.10;99.90;;;;;;3590850;39;20388;-76
2021/04/12 03:16:07;;;;;;;9.00;6.60;;;1.10;99.90;;;;;;3597999;39;20463;-77
2021/04/12 03:18:54;;;;;;;11.83;9.20;;;1.00;99.90;;;;;;3605315;39;20417;-76
2021/04/12 03:21:29;;;;;;;9.70;7.03;;;0.90;99.90;;;;;;3581035;39;20396;-77
2021/04/12 03:24:26;;;;;;;6.77;6.17;;;1.00;99.90;;;;;;3590169;39;20946;-77
2021/04/12 03:27:17;;;;;;;8.63;6.40;;;1.00;99.90;;;;;;3607427;39;20461;-77
2021/04/12 03:30:22;;;;;;;11.57;6.90;;;1.00;99.90;;;;;;3598091;39;20427;-77
2021/04/12 03:32:59;;;;;;;9.00;6.03;;;1.00;99.90;;;;;;3546869;40;20494;-76
2021/04/12 03:35:31;;;;;;;16.23;6.80;;;0.90;99.90;;;;;;3554023;40;20408;-77
2021/04/12 03:38:02;;;;;;;12.13;7.27;;;0.90;99.90;;;;;;3556002;40;20813;-77
2021/04/12 03:40:36;;;;;;;13.53;8.00;;;0.80;99.90;;;;;;3555720;40;21447;-77
2021/04/12 03:43:28;;;;;;;7.60;6.80;;;0.80;99.90;;;;;;3556196;40;20417;-77
2021/04/12 03:46:22;;;;;;;14.00;7.27;;;0.70;99.90;;;;;;3547597;40;20425;-77
2021/04/12 03:49:14;;;;;;;14.20;7.03;;;0.80;99.90;;;;;;3553710;40;20433;-77
2021/04/12 03:52:17;;;;;;;11.03;7.03;;;0.80;99.90;;;;;;3544598;40;20870;-77
2021/04/12 03:55:22;;;;;;;12.53;7.87;;;0.70;99.90;;;;;;3547801;40;20826;-77
2021/04/12 03:58:06;;;;;;;11.33;7.53;;;0.70;99.90;;;;;;3549042;40;20429;-78
2021/04/12 04:01:22;;;;;;;11.07;8.57;;;0.70;99.90;;;;;;3547348;40;20449;-78
2021/04/12 04:04:09;;;;;;;9.03;7.37;;;0.80;99.90;;;;;;3536756;40;20398;-77
2021/04/12 04:06:55;;;;;;;17.00;8.40;;;0.70;99.90;;;;;;3540618;40;20432;-77
2021/04/12 04:09:38;;;;;;;11.43;7.30;;;0.70;99.90;;;;;;3558755;39;20404;-78
2021/04/12 04:12:35;;;;;;;16.67;7.63;;;0.60;99.90;;;;;;3597515;39;20414;-78
2021/04/12 04:15:18;;;;;;;12.47;8.77;;;0.60;99.90;;;;;;3606975;39;20784;-78
2021/04/12 04:18:18;;;;;;;12.47;8.67;;;0.50;99.90;;;;;;3607718;39;20464;-78
2021/04/12 04:20:49;;;;;;;15.50;8.73;;;0.50;99.90;;;;;;3597694;39;21108;-78
2021/04/12 04:23:30;;;;;;;15.03;9.87;;;0.60;99.90;;;;;;3608068;39;20370;-78
2021/04/12 04:26:24;;;;;;;14.33;9.93;;;0.70;99.90;;;;;;3588461;39;20405;-77
2021/04/12 04:29:09;;;;;;;15.10;8.90;;;0.60;99.90;;;;;;3589953;39;20410;-78
2021/04/12 04:32:19;;;;;;;12.30;8.60;;;0.70;99.90;;;;;;3598327;39;20409;-78
2021/04/12 04:34:58;;;;;;;12.30;8.70;;;0.60;99.90;;;;;;3606502;39;20386;-78
2021/04/12 04:38:02;;;;;;;11.80;8.40;;;0.60;99.90;;;;;;3607430;39;20384;-78
2021/04/12 04:41:04;;;;;;;9.97;8.50;;;0.50;99.90;;;;;;3604413;39;20869;-78
2021/04/12 04:43:57;;;;;;;11.30;8.97;;;0.50;99.90;;;;;;3581039;39;21134;-78
2021/04/12 04:46:37;;;;;;;12.40;8.03;;;0.30;99.90;;;;;;3606250;39;20474;-78
2021/04/12 04:49:24;;;;;;;10.60;8.60;;;0.30;99.90;;;;;;3607525;39;20376;-78
2021/04/12 04:52:17;;;;;;;14.47;10.47;;;0.30;99.90;;;;;;3608185;39;20403;-78
2021/04/12 04:55:20;;;;;;;13.90;9.20;;;0.20;99.90;;;;;;3596469;39;20411;-78
2021/04/12 04:58:06;;;;;;;12.43;9.63;;;0.10;99.90;;;;;;3606121;39;20365;-79
2021/04/12 05:01:15;;;;;;;19.30;11.60;;;0.30;99.90;;;;;;3606750;39;20409;-77
2021/04/12 05:04:02;;;;;;;15.80;11.30;;;0.30;99.90;;;;;;3546404;40;20462;-77
2021/04/12 05:06:36;;;;;;;14.60;12.33;;;0.40;99.90;;;;;;3555138;40;20433;-77
2021/04/12 05:09:19;;;;;;;19.50;12.60;;;0.50;99.90;;;;;;3555820;40;20815;-77
2021/04/12 05:11:57;;;;;;;24.80;13.40;;;0.40;99.90;;;;;;3562137;40;20789;-77
2021/04/12 05:14:38;;;;;;;21.83;12.60;;;0.40;99.90;;;;;;3563364;40;20562;-77
2021/04/12 05:17:32;;;;;;;18.53;11.57;;;0.30;99.90;;;;;;3556747;40;20405;-78
2021/04/12 05:20:13;;;;;;;12.83;11.17;;;0.50;99.90;;;;;;3563258;40;20393;-77
2021/04/12 05:22:57;;;;;;;20.40;13.87;;;0.50;99.90;;;;;;3555370;40;20471;-78
2021/04/12 05:25:42;;;;;;;20.93;14.93;;;0.50;99.90;;;;;;3554206;40;20536;-78
2021/04/12 05:28:29;;;;;;;18.77;14.73;;;0.60;99.90;;;;;;3561530;40;20404;-77
2021/04/12 05:31:25;;;;;;;15.53;12.40;;;0.70;99.90;;;;;;3563034;40;20382;-77
2021/04/12 05:34:38;;;;;;;18.53;13.33;;;0.90;99.90;;;;;;3562451;40;20414;-78
2021/04/12 05:37:35;;;;;;;16.77;12.47;;;1.00;99.90;;;;;;3562409;39;20439;-78
2021/04/12 05:40:25;;;;;;;13.73;11.80;;;1.10;99.90;;;;;;3593907;39;20405;-78
2021/04/12 05:43:30;;;;;;;21.47;13.17;;;1.20;99.90;;;;;;3588591;39;20429;-79
2021/04/12 05:46:17;;;;;;;14.93;12.90;;;1.30;99.90;;;;;;3591128;39;20406;-78
2021/04/12 05:49:24;;;;;;;15.90;13.30;;;1.50;99.90;;;;;;3600382;39;20379;-78
2021/04/12 05:52:18;;;;;;;13.37;11.97;;;1.70;99.90;;;;;;3574585;39;20385;-78
2021/04/12 05:55:03;;;;;;;14.90;12.10;;;1.70;99.90;;;;;;3589585;39;20490;-78
2021/04/12 05:57:59;;;;;;;15.83;13.50;;;1.80;99.90;;;;;;3575379;39;20394;-78
2021/04/12 06:00:47;;;;;;;17.53;12.17;;;1.80;99.90;;;;;;3595688;39;20432;-78
2021/04/12 06:03:22;;;;;;;15.40;13.23;;;2.00;99.90;;;;;;3582360;39;20433;-78
2021/04/12 06:06:22;;;;;;;17.10;15.37;;;2.10;99.90;;;;;;3593718;39;20432;-78
2021/04/12 06:08:57;;;;;;;15.40;12.50;;;2.20;99.90;;;;;;3584784;39;20453;-78
2021/04/12 06:11:45;;;;;;;17.83;12.97;;;2.20;99.90;;;;;;3581428;39;20941;-78
2021/04/12 06:14:35;;;;;;;18.50;13.73;;;2.30;99.90;;;;;;3572652;39;20434;-79
2021/04/12 06:17:20;;;;;;;19.23;13.73;;;2.30;99.90;;;;;;3598351;39;20413;-78
2021/04/12 06:20:32;;;;;;;17.23;14.07;;;2.30;99.90;;;;;;3597079;39;20462;-78
2021/04/12 06:23:16;;;;;;;15.20;12.43;;;2.40;99.90;;;;;;3593401;39;20396;-79
2021/04/12 06:25:56;;;;;;;19.13;12.43;;;2.60;99.90;;;;;;3576069;39;20571;-78
2021/04/12 06:28:44;;;;;;;16.50;12.80;;;2.50;99.90;;;;;;3597222;39;20418;-78
2021/04/12 06:31:59;;;;;;;18.57;12.33;;;2.60;99.90;;;;;;3584695;39;20402;-78
2021/04/12 06:35:04;;;;;;;18.90;12.67;;;2.60;99.90;;;;;;3589671;39;20406;-78
2021/04/12 06:37:54;;;;;;;17.00;13.87;;;2.80;99.90;;;;;;3580988;39;20490;-78
2021/04/12 06:40:38;;;;;;;13.17;11.83;;;3.00;99.90;;;;;;3607126;39;20426;-78
2021/04/12 06:43:27;;;;;;;13.63;12.23;;;3.20;99.90;;;;;;3594441;39;20427;-77
2021/04/12 06:46:14;;;;;;;21.43;14.67;;;3.40;99.90;;;;;;3580376;39;20792;-78
2021/04/12 06:48:58;;;;;;;15.13;12.87;;;3.40;99.90;;;;;;3577308;39;20520;-78
2021/04/12 06:51:52;;;;;;;16.90;13.10;;;3.40;99.90;;;;;;3596807;39;20400;-77
2021/04/12 06:54:45;;;;;;;16.77;11.50;;;3.90;99.90;;;;;;3597335;39;20497;-77
2021/04/12 06:57:30;;;;;;;18.83;11.90;;;3.60;99.90;;;;;;3596415;39;20386;-77
2021/04/12 07:00:02;;;;;;;16.10;11.50;;;3.40;99.90;;;;;;3595893;39;20421;-78
2021/04/12 07:03:06;;;;;;;19.00;12.77;;;3.30;99.90;;;;;;3599551;39;20464;-78
2021/04/12 07:05:50;;;;;;;23.43;13.00;;;3.20;99.90;;;;;;3595286;39;20416;-77
2021/04/12 07:08:44;;;;;;;16.93;11.37;;;3.20;99.90;;;;;;3586048;39;20433;-78
2021/04/12 07:11:33;;;;;;;15.03;10.93;;;3.30;99.90;;;;;;3595721;39;20411;-77
2021/04/12 07:14:30;;;;;;;15.73;12.57;;;3.30;99.90;;;;;;3595981;39;20371;-78
2021/04/12 07:17:15;;;;;;;22.33;12.03;;;3.50;99.90;;;;;;3596290;39;20467;-78
2021/04/12 07:20:00;;;;;;;15.90;12.30;;;3.60;99.90;;;;;;3576730;39;20783;-77
2021/04/12 07:23:17;;;;;;;16.67;12.40;;;3.60;99.90;;;;;;3593511;39;20728;-78
2021/04/12 07:25:54;;;;;;;16.63;13.00;;;3.60;99.90;;;;;;3587432;39;20381;-77
2021/04/12 07:28:26;;;;;;;18.23;12.67;;;3.80;99.90;;;;;;3594483;39;20527;-78
2021/04/12 07:31:23;;;;;;;15.50;13.13;;;3.90;99.90;;;;;;3600950;39;20391;-77
2021/04/12 07:34:22;;;;;;;15.03;11.67;;;3.80;99.90;;;;;;3606089;39;20524;-78
2021/04/12 07:37:12;;;;;;;15.13;11.93;;;4.00;99.90;;;;;;3594897;39;20386;-78
2021/04/12 07:40:15;;;;;;;19.70;11.40;;;3.60;99.90;;;;;;3588355;39;21116;-77
2021/04/12 07:42:47;;;;;;;15.07;10.90;;;3.70;99.90;;;;;;3596862;39;20789;-77
2021/04/12 07:45:39;;;;;;;14.90;12.10;;;3.80;99.90;;;;;;3602643;39;20406;-78
2021/04/12 07:48:17;;;;;;;16.53;13.17;;;4.20;99.90;;;;;;3604194;39;20399;-79
2021/04/12 07:51:37;;;;;;;12.60;10.17;;;4.30;99.90;;;;;;3606084;39;20791;-78
2021/04/12 07:54:30;;;;;;;19.10;11.07;;;4.60;99.90;;;;;;3605715;39;20421;-78
2021/04/12 07:57:14;;;;;;;25.80;14.83;;;4.40;99.90;;;;;;3596947;39;20410;-78
2021/04/12 08:00:02;;;;;;;18.97;12.57;;;4.20;99.90;;;;;;3604217;39;20451;-78
2021/04/12 08:02:57;;;;;;;16.77;14.10;;;4.80;99.90;;;;;;3589605;39;20438;-78
2021/04/12 08:05:41;;;;;;;19.23;15.20;;;5.10;99.90;;;;;;3595718;39;20418;-78
2021/04/12 08:08:32;;;;;;;17.33;14.20;;;5.20;99.90;;;;;;3602998;39;20388;-78
2021/04/12 08:11:46;;;;;;;16.50;11.57;;;5.30;99.90;;;;;;3578483;39;20497;-77
2021/04/12 08:14:30;;;;;;;13.90;12.50;;;5.00;99.90;;;;;;3588325;39;20403;-78
2021/04/12 08:17:34;;;;;;;14.57;11.30;;;5.20;99.90;;;;;;3584419;39;20400;-78
2021/04/12 08:20:37;;;;;;;17.53;11.07;;;5.50;99.90;;;;;;3594348;39;20414;-77
2021/04/12 08:23:11;;;;;;;10.03;9.07;;;5.30;99.90;;;;;;3581001;39;20409;-78
2021/04/12 08:25:43;;;;;;;13.93;8.93;;;5.30;99.90;;;;;;3605273;39;20776;-78
2021/04/12 08:29:03;;;;;;;10.27;8.97;;;5.40;99.90;;;;;;3595005;39;20912;-78
2021/04/12 08:31:50;;;;;;;12.40;9.20;;;5.30;99.90;;;;;;3594555;39;20416;-78
2021/04/12 08:34:38;;;;;;;12.07;8.83;;;5.10;99.90;;;;;;3596012;39;20439;-78
2021/04/12 08:37:41;;;;;;;9.90;8.83;;;5.50;99.90;;;;;;3605350;39;20385;-78
2021/04/12 08:40:22;;;;;;;9.63;8.60;;;6.00;99.90;;;;;;3604987;39;20417;-78
2021/04/12 08:43:41;;;;;;;11.07;8.00;;;5.90;99.90;;;;;;3579709;39;20446;-78
2021/04/12 08:46:45;;;;;;;11.23;9.37;;;5.50;99.90;;;;;;3606072;39;20374;-78
2021/04/12 08:49:33;;;;;;;9.80;7.10;;;5.60;99.90;;;;;;3602971;39;20517;-78
2021/04/12 08:52:27;;;;;;;12.93;10.30;;;5.60;99.90;;;;;;3594166;39;20808;-77
2021/04/12 08:55:34;;;;;;;12.53;9.77;;;6.00;99.90;;;;;;3587731;39;20417;-78
2021/04/12 08:58:14;;;;;;;15.90;9.23;;;6.10;99.90;;;;;;3581725;39;20732;-78
2021/04/12 09:01:17;;;;;;;15.77;9.47;;;6.30;99.90;;;;;;3592661;39;20417;-78
2021/04/12 09:04:08;;;;;;;16.33;9.40;;;6.00;99.90;;;;;;3604514;39;20390;-78
2021/04/12 09:07:12;;;;;;;9.80;8.80;;;5.80;99.90;;;;;;3592257;39;20408;-78
2021/04/12 09:10:00;;;;;;;12.53;8.17;;;6.30;99.90;;;;;;3594219;39;20403;-78
2021/04/12 09:13:11;;;;;;;8.60;7.80;;;6.90;99.90;;;;;;3579693;39;20413;-77
2021/04/12 09:16:11;;;;;;;12.40;9.83;;;6.60;99.90;;;;;;3598472;39;20430;-77
2021/04/12 09:19:14;;;;;;;9.53;8.43;;;6.60;99.90;;;;;;3587764;39;20585;-77
2021/04/12 09:22:03;;;;;;;14.50;7.67;;;7.20;15.20;;;;;;3602854;39;20383;-77
2021/04/12 09:25:03;;;;;;;9.07;6.53;;;7.70;1.00;;;;;;3588139;39;20422;-78
2021/04/12 09:28:11;;;;;;;7.47;6.60;;;6.80;1.00;;;;;;3587038;39;20449;-78
2021/04/12 09:31:07;;;;;;;9.20;7.00;;;7.40;1.00;;;;;;3580336;39;20476;-78
2021/04/12 09:34:14;;;;;;;8.93;7.53;;;7.30;1.00;;;;;;3602781;39;20370;-78
2021/04/12 09:37:15;;;;;;;12.67;7.77;;;6.40;2.00;;;;;;3577386;39;20413;-78
2021/04/12 09:40:16;;;;;;;11.60;8.40;;;6.50;36.70;;;;;;3595551;39;20468;-78
2021/04/12 09:42:50;;;;;;;17.73;9.47;;;6.60;99.90;;;;;;3603015;39;20385;-78
2021/04/12 09:45:42;;;;;;;24.83;16.43;;;6.30;97.50;;;;;;3594060;39;20402;-78
2021/04/12 09:48:23;;;;;;;9.43;7.97;;;6.10;99.90;;;;;;3592839;39;20382;-78
2021/04/12 09:51:17;;;;;;;8.77;7.93;;;5.90;99.90;;;;;;3596682;39;20445;-77
2021/04/12 09:54:13;;;;;;;10.30;7.93;;;5.20;99.90;;;;;;3597007;39;20589;-78
2021/04/12 09:56:45;;;;;;;10.20;7.77;;;5.20;99.90;;;;;;3596330;39;20856;-78
2021/04/12 09:59:36;;;;;;;7.30;6.70;;;5.30;99.90;;;;;;3606153;39;20492;-78
2021/04/12 10:02:17;;;;;;;8.00;7.20;;;6.10;99.90;;;;;;3591705;39;20479;-78
2021/04/12 10:05:20;;;;;;;8.90;7.40;;;6.40;99.90;;;;;;3601442;39;20939;-78
2021/04/12 10:08:23;;;;;;;9.83;8.80;;;6.60;99.90;;;;;;3595707;39;20415;-78
2021/04/12 10:11:05;;;;;;;8.10;7.30;;;5.70;99.90;;;;;;3590283;39;20708;-78
2021/04/12 10:14:04;;;;;;;12.37;8.30;;;5.20;99.90;;;;;;3587520;39;20409;-78
2021/04/12 10:16:39;;;;;;;7.87;7.17;;;5.00;99.90;;;;;;3581094;39;20428;-79
2021/04/12 10:19:13;;;;;;;9.70;8.70;;;5.10;99.90;;;;;;3601701;39;20405;-77
2021/04/12 10:22:05;;;;;;;6.20;5.60;;;5.00;99.90;;;;;;3603640;39;20420;-77
2021/04/12 10:25:02;;;;;;;7.03;5.70;;;4.90;99.90;;;;;;3602656;39;20388;-76
2021/04/12 10:27:43;;;;;;;6.97;6.27;;;5.00;99.90;;;;;;3591336;39;20428;-77
2021/04/12 10:30:30;;;;;;;6.67;6.03;;;6.30;99.90;;;;;;3593860;39;20427;-77
2021/04/12 10:33:01;;;;;;;6.13;5.73;;;8.10;1.00;;;;;;3590575;39;20754;-77
2021/04/12 10:35:45;;;;;;;5.90;4.97;;;8.40;1.00;;;;;;3598216;39;20762;-78
2021/04/12 10:38:42;;;;;;;9.67;6.20;;;9.90;99.90;;;;;;3595655;39;20418;-78
2021/04/12 10:41:27;;;;;;;12.30;7.00;;;8.30;99.90;;;;;;3602936;39;20480;-77
2021/04/12 10:44:13;;;;;;;7.83;6.90;;;7.90;99.90;;;;;;3594919;39;20446;-77
2021/04/12 10:46:57;;;;;;;7.13;6.53;;;8.40;1.00;;;;;;3594231;39;20499;-77
2021/04/12 10:49:45;;;;;;;8.00;6.90;;;9.30;1.00;;;;;;3573060;39;20415;-77
2021/04/12 10:52:42;;;;;;;7.23;6.07;;;10.40;3.20;;;;;;3578387;39;21125;-77
2021/04/12 10:55:22;;;;;;;5.47;4.27;;;9.60;1.00;;;;;;3581573;39;20418;-78
2021/04/12 10:58:11;;;;;;;4.50;3.87;;;8.70;1.00;;;;;;3582926;39;20519;-78
2021/04/12 11:00:54;;;;;;;10.07;5.63;;;7.70;1.00;;;;;;3584766;39;20494;-78
2021/04/12 11:03:39;;;;;;;7.57;5.17;;;8.50;1.00;;;;;;3588091;39;20830;-78
2021/04/12 11:06:10;;;;;;;5.83;4.63;;;8.50;1.00;;;;;;3596126;39;21357;-78
2021/04/12 11:08:48;;;;;;;3.20;2.43;;;8.90;1.00;;;;;;3595404;39;20467;-77
2021/04/12 11:11:30;;;;;;;2.60;2.40;;;8.60;91.00;;;;;;3598026;39;20402;-78
2021/04/12 11:14:01;;;;;;;2.20;2.00;;;8.20;1.00;;;;;;3602164;39;20832;-78
2021/04/12 11:16:36;;;;;;;3.77;1.93;;;7.20;99.90;;;;;;3589460;39;20406;-78
2021/04/12 11:19:26;;;;;;;4.40;2.47;;;6.80;1.00;;;;;;3593911;39;20389;-78
2021/04/12 11:22:12;;;;;;;2.60;2.40;;;6.20;1.00;;;;;;3591805;39;20390;-78
2021/04/12 11:24:50;;;;;;;2.90;1.73;;;6.00;1.00;;;;;;3578883;39;20406;-78
2021/04/12 11:27:38;;;;;;;1.63;1.53;;;6.50;99.90;;;;;;3591274;39;20819;-78
2021/04/12 11:30:07;;;;;;;1.90;1.80;;;6.30;1.00;;;;;;3601397;39;20405;-78
2021/04/12 11:32:54;;;;;;;2.40;2.20;;;6.50;1.00;;;;;;3593982;39;20472;-77
2021/04/12 11:35:49;;;;;;;2.97;2.67;;;5.80;1.00;;;;;;3594303;39;20418;-78
2021/04/12 11:38:20;;;;;;;3.20;2.93;;;5.60;1.00;;;;;;3594164;39;20484;-79
2021/04/12 11:40:58;;;;;;;3.90;3.60;;;5.60;99.90;;;;;;3596570;39;20433;-79
2021/04/12 11:43:28;;;;;;;5.37;4.93;;;4.80;99.90;;;;;;3606208;39;20420;-78
2021/04/12 11:46:09;;;;;;;5.80;5.10;;;4.90;99.90;;;;;;3606397;39;20370;-79
2021/04/12 11:49:00;;;;;;;7.50;6.13;;;5.00;99.90;;;;;;3597870;39;20394;-79
2021/04/12 11:51:32;;;;;;;6.13;5.50;;;4.80;99.90;;;;;;3596941;39;20421;-79
2021/04/12 11:54:00;;;;;;;2.50;2.30;;;4.80;99.90;;;;;;3586295;39;20465;-78
2021/04/12 11:57:07;;;;;;;4.33;2.40;;;4.20;99.90;;;;;;3587149;39;20398;-79
2021/04/12 11:59:36;;;;;;;2.23;2.13;;;3.80;99.90;;;;;;3591392;39;20425;-79
2021/04/12 12:02:29;;;;;;;3.23;2.93;;;3.70;99.90;;;;;;3606862;39;20409;-79
2021/04/12 12:05:06;;;;;;;3.77;3.47;;;3.80;99.90;;;;;;3596432;39;20392;-78
2021/04/12 12:07:38;;;;;;;3.60;3.30;;;4.30;99.90;;;;;;3595176;39;20416;-78
2021/04/12 12:10:13;;;;;;;4.17;3.03;;;4.40;99.90;;;;;;3596032;39;20422;-78
2021/04/12 12:13:12;;;;;;;5.77;4.83;;;4.20;99.90;;;;;;3595179;39;20407;-78
2021/04/12 12:16:17;;;;;;;8.73;5.93;;;4.70;99.90;;;;;;3595061;39;20516;-78
2021/04/12 12:19:08;;;;;;;5.77;5.13;;;4.70;99.90;;;;;;3593851;39;20404;-78
2021/04/12 12:21:44;;;;;;;5.93;5.33;;;5.80;99.90;;;;;;3593994;39;20411;-78
2021/04/12 12:24:24;;;;;;;2.40;2.20;;;6.70;1.00;;;;;;3594365;39;20415;-78
2021/04/12 12:27:05;;;;;;;4.20;3.80;;;7.40;99.90;;;;;;3592537;39;20537;-78
2021/04/12 12:29:46;;;;;;;1.90;1.80;;;7.30;99.90;;;;;;3594082;39;20403;-78
2021/04/12 12:32:15;;;;;;;2.97;2.77;;;7.10;1.00;;;;;;3587920;39;20412;-78
2021/04/12 12:34:53;;;;;;;5.00;3.47;;;6.80;99.90;;;;;;3593964;39;20517;-78
2021/04/12 12:37:22;;;;;;;3.10;2.90;;;7.80;99.90;;;;;;3594234;39;20429;-78
2021/04/12 12:39:53;;;;;;;2.40;2.20;;;7.30;3.00;;;;;;3597548;39;20394;-78
2021/04/12 12:42:30;;;;;;;2.60;2.30;;;6.90;99.90;;;;;;3596571;39;20396;-78
2021/04/12 12:45:08;;;;;;;3.27;2.97;;;7.10;99.90;;;;;;3578188;39;20551;-78
2021/04/12 12:47:36;;;;;;;3.33;3.07;;;7.80;33.30;;;;;;3591612;39;20414;-78
2021/04/12 12:50:11;;;;;;;3.20;2.97;;;8.10;1.00;;;;;;3591141;39;20435;-78
2021/04/12 12:52:47;;;;;;;3.00;2.80;;;;;;;;;;3593451;39;21165;-78
2021/04/12 12:55:16;;;;;;;2.83;2.53;;;;;;;;;;3592952;39;20496;-78
2021/04/12 12:57:43;;;;;;;3.13;2.87;;;8.70;1.00;;;;;;3585975;39;21223;-78
2021/04/12 13:00:19;;;;;;;4.13;3.73;;;9.00;1.00;;;;;;3596413;39;20421;-78
2021/04/12 13:02:47;;;;;;;6.10;3.47;;;8.80;1.00;;;;;;3593383;39;20446;-78
2021/04/12 13:05:26;;;;;;;3.83;3.40;;;9.00;1.00;;;;;;3594558;39;20399;-78
2021/04/12 13:08:04;;;;;;;3.30;3.10;;;;;;;;;;3587447;39;20621;-79
2021/04/12 13:10:30;;;;;;;9.27;4.37;;;;;;;;;;3585902;39;20578;-77
2021/04/12 13:12:56;;;;;;;4.47;4.07;;;;;;;;;;3592845;39;20419;-77
2021/04/12 13:15:39;;;;;;;4.63;4.07;;;9.70;1.00;;;;;;3591475;39;21061;-78
2021/04/12 13:18:20;;;;;;;4.13;3.83;;;9.50;99.90;;;;;;3585193;39;20837;-78
2021/04/12 13:20:53;;;;;;;5.10;3.47;;;9.50;99.90;;;;;;3586070;39;20403;-78
2021/04/12 13:23:41;;;;;;;3.73;3.17;;;9.10;99.90;;;;;;3591254;39;20517;-78
2021/04/12 13:26:30;;;;;;;3.20;2.90;;;8.90;99.90;;;;;;3603094;39;20708;-78
2021/04/12 13:29:05;;;;;;;4.23;3.83;;;8.80;99.90;;;;;;3593741;39;20458;-79
2021/04/12 13:31:37;;;;;;;3.00;2.80;;;;;;;;;;3587598;39;20391;-78
2021/04/12 13:34:15;;;;;;;6.47;3.80;;;9.80;99.90;;;;;;3579677;39;20451;-79
2021/04/12 13:36:58;;;;;;;4.33;3.93;;;10.20;99.90;;;;;;3593295;39;20407;-79
2021/04/12 13:40:03;;;;;;;4.80;4.27;;;9.50;99.90;;;;;;3598014;39;20478;-78
2021/04/12 13:42:34;;;;;;;5.13;4.63;;;9.90;99.90;;;;;;3596638;39;20419;-79
2021/04/12 13:45:06;;;;;;;6.07;5.53;;;10.00;99.90;;;;;;3597070;39;20435;-79
2021/04/12 13:47:49;;;;;;;5.23;4.73;;;9.20;99.90;;;;;;3597022;39;20423;-79
2021/04/12 13:50:25;;;;;;;7.47;6.00;;;7.70;99.90;;;;;;3594670;39;20423;-78
2021/04/12 13:53:03;;;;;;;6.77;6.17;;;7.90;99.90;;;;;;3596505;39;21106;-78
2021/04/12 13:55:36;;;;;;;9.67;5.20;;;8.10;99.90;;;;;;3590180;39;20393;-79
2021/04/12 13:58:12;;;;;;;6.40;4.80;;;7.50;1.00;;;;;;3596564;39;20447;-79
2021/04/12 14:00:49;;;;;;;3.40;3.20;;;7.30;99.90;;;;;;3595558;39;20856;-79
2021/04/12 14:03:15;;;;;;;4.30;3.67;;;;;;;;;;3597947;39;20544;-79
2021/04/12 14:05:51;;;;;;;6.40;5.00;;;;;;;;;;3591715;39;20424;-79
2021/04/12 14:08:21;;;;;;;6.23;5.50;;;;;;;;;;3587100;39;20444;-79
2021/04/12 14:10:57;;;;;;;8.03;7.23;;;;;;;;;;3587733;39;20427;-80
2021/04/12 14:13:35;;;;;;;5.40;5.00;;;;;;;;;;3590886;39;20510;-77
2021/04/12 14:16:20;;;;;;;6.90;5.87;;;;;;;;;;3592524;39;20417;-79
2021/04/12 14:18:48;;;;;;;6.93;6.23;;;;;;;;;;3597854;39;20406;-79
2021/04/12 14:21:29;;;;;;;8.03;6.27;;;;;;;;;;3584918;39;20434;-78
2021/04/12 14:23:58;;;;;;;10.50;9.40;;;;;;;;;;3587023;39;21112;-79
2021/04/12 14:26:39;;;;;;;8.50;7.80;;;6.10;1.00;;;;;;3589533;39;20540;-78
2021/04/12 14:29:10;;;;;;;10.50;7.97;;;5.90;99.90;;;;;;3593988;39;20409;-78
2021/04/12 14:31:45;;;;;;;8.50;7.60;;;5.60;99.90;;;;;;3594003;39;20892;-79
2021/04/12 14:34:32;;;;;;;6.40;5.80;;;6.50;99.90;;;;;;3601012;39;20385;-79